createdAt,value
2019-01-09T00:00:46.213Z,98303.87
2019-01-09T00:03:13.495Z,98304.64
2019-01-09T00:05:40.448Z,98300.61
2019-01-09T00:08:07.405Z,98307.47
2019-01-09T00:10:34.360Z,98307.30
2019-01-09T00:13:01.654Z,98303.00
2019-01-09T00:15:29.832Z,98304.14
2019-01-09T00:17:56.714Z,98297.25
2019-01-09T00:20:23.926Z,98305.84
2019-01-09T00:22:51.066Z,98313.12
2019-01-09T00:25:17.999Z,98307.91
2019-01-09T00:27:44.853Z,98306.63
2019-01-09T00:30:11.777Z,98309.80
2019-01-09T00:32:39.065Z,98311.45
2019-01-09T00:35:06.301Z,98312.54
2019-01-09T00:37:33.558Z,98310.45
2019-01-09T00:40:00.717Z,98311.51
2019-01-09T00:42:27.944Z,98316.87
2019-01-09T00:44:55.132Z,98313.95
2019-01-09T00:47:22.074Z,98315.60
2019-01-09T00:49:48.983Z,98312.55
2019-01-09T00:52:15.938Z,98317.61
2019-01-09T00:54:42.985Z,98312.75
2019-01-09T00:57:09.944Z,98319.30
2019-01-09T00:59:36.828Z,98315.02
2019-01-09T01:02:03.985Z,98313.97
2019-01-09T01:04:30.848Z,98308.23
2019-01-09T01:06:57.993Z,98326.42
2019-01-09T01:09:25.184Z,98323.87
2019-01-09T01:11:53.210Z,98324.52
2019-01-09T01:14:20.130Z,98323.52
2019-01-09T01:16:47.018Z,98325.13
2019-01-09T01:19:13.947Z,98329.26
2019-01-09T01:21:41.272Z,98327.21
2019-01-09T01:24:08.536Z,98320.56
2019-01-09T01:26:35.761Z,98326.36
2019-01-09T01:29:02.809Z,98327.78
2019-01-09T01:31:30.046Z,98329.73
2019-01-09T01:33:57.202Z,98320.58
2019-01-09T01:36:24.141Z,98331.81
2019-01-09T01:38:51.303Z,98325.53
2019-01-09T01:41:18.649Z,98338.57
2019-01-09T01:43:45.545Z,98335.46
2019-01-09T01:46:12.476Z,98332.34
2019-01-09T01:48:39.421Z,98339.11
2019-01-09T01:51:06.399Z,98329.70
2019-01-09T01:53:33.326Z,98334.37
2019-01-09T01:56:00.196Z,98344.38
2019-01-09T01:58:27.100Z,98342.19
2019-01-09T02:00:54.078Z,98337.31
2019-01-09T02:03:21.050Z,98340.20
2019-01-09T02:05:47.996Z,98340.26
2019-01-09T02:08:15.121Z,98332.87
2019-01-09T02:10:41.985Z,98348.12
2019-01-09T02:13:09.183Z,98342.70
2019-01-09T02:15:36.163Z,98337.92
2019-01-09T02:18:03.140Z,98348.63
2019-01-09T02:20:30.005Z,98339.83
2019-01-09T02:22:56.890Z,98336.21
2019-01-09T02:25:24.041Z,98346.50
2019-01-09T02:27:50.962Z,98340.36
2019-01-09T02:30:18.180Z,98346.69
2019-01-09T02:32:45.119Z,98339.83
2019-01-09T02:35:12.758Z,98352.14
2019-01-09T02:37:39.650Z,98355.00
2019-01-09T02:40:06.633Z,98355.27
2019-01-09T02:42:33.857Z,98352.38
2019-01-09T02:45:01.097Z,98354.67
2019-01-09T02:47:28.113Z,98346.72
2019-01-09T02:49:55.062Z,98342.93
2019-01-09T02:52:22.133Z,98347.73
2019-01-09T02:54:49.099Z,98345.13
2019-01-09T02:57:15.962Z,98350.31
2019-01-09T02:59:43.193Z,98343.00
2019-01-09T03:02:10.399Z,98340.84
2019-01-09T03:04:37.279Z,98334.41
2019-01-09T03:07:04.161Z,98341.48
2019-01-09T03:09:31.135Z,98330.75
2019-01-09T03:11:58.089Z,98341.13
2019-01-09T03:14:25.390Z,98343.23
2019-01-09T03:16:52.598Z,98342.65
2019-01-09T03:19:19.465Z,98343.72
2019-01-09T03:21:46.337Z,98341.55
2019-01-09T03:24:14.273Z,98341.55
2019-01-09T03:26:41.148Z,98348.57
2019-01-09T03:29:08.107Z,98348.55
2019-01-09T03:31:35.048Z,98355.16
2019-01-09T03:34:01.910Z,98344.94
2019-01-09T03:36:32.918Z,98341.45
2019-01-09T03:38:57.962Z,98349.33
2019-01-09T03:41:24.917Z,98345.09
2019-01-09T03:43:52.188Z,98342.24
2019-01-09T03:46:19.137Z,98340.41
2019-01-09T03:48:46.003Z,98347.73
2019-01-09T03:51:12.959Z,98345.59
2019-01-09T03:53:40.162Z,98356.09
2019-01-09T03:56:07.034Z,98356.89
2019-01-09T03:58:34.272Z,98355.16
2019-01-09T04:01:01.622Z,98349.20
2019-01-09T04:03:28.975Z,98354.14
2019-01-09T04:05:55.869Z,98352.64
2019-01-09T04:08:22.813Z,98349.95
2019-01-09T04:10:50.009Z,98355.87
2019-01-09T04:13:16.873Z,98352.22
2019-01-09T04:15:49.519Z,98352.25
2019-01-09T04:18:16.472Z,98359.42
2019-01-09T04:20:43.361Z,98355.31
2019-01-09T04:23:10.704Z,98357.60
2019-01-09T04:25:37.889Z,98357.80
2019-01-09T04:28:04.795Z,98358.84
2019-01-09T04:30:31.764Z,98356.16
2019-01-09T04:32:58.662Z,98362.72
2019-01-09T04:35:25.887Z,98353.28
2019-01-09T04:37:52.834Z,98358.23
2019-01-09T04:40:20.140Z,98362.45
2019-01-09T04:42:47.085Z,98359.84
2019-01-09T04:45:14.046Z,98367.89
2019-01-09T04:47:42.385Z,98360.08
2019-01-09T04:50:09.325Z,98368.46
2019-01-09T04:52:37.287Z,98366.03
2019-01-09T04:55:04.241Z,98368.38
2019-01-09T04:57:31.618Z,98367.59
2019-01-09T04:59:58.577Z,98380.14
2019-01-09T05:02:25.815Z,98370.52
2019-01-09T05:04:52.926Z,98373.00
2019-01-09T05:07:20.229Z,98382.79
2019-01-09T05:09:47.490Z,98382.79
2019-01-09T05:12:14.726Z,98382.94
2019-01-09T05:14:41.634Z,98395.63
2019-01-09T05:17:08.926Z,98383.28
2019-01-09T05:19:35.829Z,98392.58
2019-01-09T05:22:03.143Z,98376.34
2019-01-09T05:24:30.404Z,98391.76
2019-01-09T05:26:57.409Z,98397.75
2019-01-09T05:29:24.325Z,98395.25
2019-01-09T05:31:51.209Z,98404.58
2019-01-09T05:34:18.176Z,98400.28
2019-01-09T05:36:45.528Z,98400.04
2019-01-09T05:39:12.632Z,98400.13
2019-01-09T05:41:39.609Z,98410.22
2019-01-09T05:44:06.889Z,98409.34
2019-01-09T05:46:33.778Z,98404.61
2019-01-09T05:49:01.389Z,98418.13
2019-01-09T05:51:28.725Z,98415.18
2019-01-09T05:53:55.614Z,98415.20
2019-01-09T05:56:22.565Z,98418.88
2019-01-09T05:58:50.270Z,98421.87
2019-01-09T06:01:17.445Z,98424.54
2019-01-09T06:03:44.683Z,98431.77
2019-01-09T06:06:11.959Z,98425.50
2019-01-09T06:08:38.913Z,98431.13
2019-01-09T06:11:06.144Z,98429.63
2019-01-09T06:13:33.456Z,98441.64
2019-01-09T06:16:00.746Z,98445.23
2019-01-09T06:18:27.790Z,98439.48
2019-01-09T06:20:54.693Z,98444.35
2019-01-09T06:23:21.569Z,98451.58
2019-01-09T06:25:48.444Z,98439.95
2019-01-09T06:28:15.410Z,98447.21
2019-01-09T06:30:42.305Z,98453.11
2019-01-09T06:33:09.617Z,98446.97
2019-01-09T06:35:36.911Z,98457.61
2019-01-09T06:38:03.773Z,98456.33
2019-01-09T06:40:30.902Z,98459.89
2019-01-09T06:42:58.168Z,98458.28
2019-01-09T06:45:25.431Z,98461.79
2019-01-09T06:47:52.679Z,98471.13
2019-01-09T06:50:19.602Z,98472.48
2019-01-09T06:52:46.512Z,98479.87
2019-01-09T06:55:13.859Z,98477.34
2019-01-09T06:57:41.172Z,98486.81
2019-01-09T07:00:08.071Z,98477.66
2019-01-09T07:02:34.960Z,98491.16
2019-01-09T07:05:01.827Z,98489.02
2019-01-09T07:07:35.945Z,98499.97
2019-01-09T07:09:57.363Z,98496.59
2019-01-09T07:12:24.331Z,98490.34
2019-01-09T07:14:51.269Z,98493.67
2019-01-09T07:17:18.161Z,98499.75
2019-01-09T07:19:45.042Z,98509.51
2019-01-09T07:22:11.997Z,98503.71
2019-01-09T07:24:39.314Z,98509.95
2019-01-09T07:27:06.565Z,98514.47
2019-01-09T07:29:33.429Z,98517.02
2019-01-09T07:32:00.672Z,98518.30
2019-01-09T07:34:27.624Z,98529.44
2019-01-09T07:36:54.620Z,98529.05
2019-01-09T07:39:21.619Z,98523.34
2019-01-09T07:41:48.849Z,98530.63
2019-01-09T07:44:15.998Z,98529.86
2019-01-09T07:46:42.883Z,98536.66
2019-01-09T07:49:09.857Z,98540.90
2019-01-09T07:51:36.730Z,98541.78
2019-01-09T07:54:03.686Z,98554.33
2019-01-09T07:56:30.613Z,98539.31
2019-01-09T07:58:57.490Z,98541.34
2019-01-09T08:01:24.372Z,98542.05
2019-01-09T08:03:51.340Z,98544.60
2019-01-09T08:06:18.278Z,98546.91
2019-01-09T08:08:45.481Z,98549.36
2019-01-09T08:11:12.768Z,98557.23
2019-01-09T08:13:40.277Z,98547.64
2019-01-09T08:16:07.241Z,98554.28
2019-01-09T08:18:34.112Z,98552.36
2019-01-09T08:21:05.470Z,98552.75
2019-01-09T08:23:29.674Z,98555.61
2019-01-09T08:25:56.588Z,98561.90
2019-01-09T08:28:23.534Z,98567.45
2019-01-09T08:30:50.527Z,98566.88
2019-01-09T08:33:17.482Z,98569.01
2019-01-09T08:35:45.544Z,98574.72
2019-01-09T08:38:12.805Z,98577.66
2019-01-09T08:40:39.757Z,98579.32
2019-01-09T08:43:07.102Z,98576.44
2019-01-09T08:45:34.381Z,98583.97
2019-01-09T08:48:01.818Z,98588.58
2019-01-09T08:50:29.054Z,98596.92
2019-01-09T08:52:55.915Z,98595.19
2019-01-09T08:55:22.813Z,98593.14
2019-01-09T08:57:49.699Z,98599.51
2019-01-09T09:00:16.968Z,98603.73
2019-01-09T09:02:44.527Z,98593.61
2019-01-09T09:05:11.758Z,98613.67
2019-01-09T09:07:39.588Z,98613.37
2019-01-09T09:10:06.990Z,98616.39
2019-01-09T09:12:34.260Z,98617.58
2019-01-09T09:15:01.277Z,98613.02
2019-01-09T09:17:29.882Z,98612.06
2019-01-09T09:19:56.818Z,98616.38
2019-01-09T09:22:23.975Z,98623.09
2019-01-09T09:24:50.848Z,98623.02
2019-01-09T09:27:18.086Z,98622.95
2019-01-09T09:29:45.020Z,98626.27
2019-01-09T09:32:11.893Z,98628.02
2019-01-09T09:34:39.139Z,98625.09
2019-01-09T09:37:06.384Z,98622.19
2019-01-09T09:39:33.743Z,98625.09
2019-01-09T09:42:01.085Z,98624.61
2019-01-09T09:44:28.018Z,98622.91
2019-01-09T09:46:54.952Z,98624.52
2019-01-09T09:49:21.889Z,98627.98
2019-01-09T09:51:49.162Z,98624.66
2019-01-09T09:54:17.553Z,98629.63
2019-01-09T09:56:44.524Z,98620.42
2019-01-09T09:59:11.446Z,98628.40
2019-01-09T10:01:38.390Z,98630.03
2019-01-09T10:04:05.280Z,98622.47
2019-01-09T10:06:32.252Z,98626.22
2019-01-09T10:08:59.189Z,98629.29
2019-01-09T10:11:26.355Z,98635.94
2019-01-09T10:13:53.214Z,98635.98
2019-01-09T10:16:20.099Z,98642.20
2019-01-09T10:18:47.301Z,98636.28
2019-01-09T10:21:15.582Z,98644.23
2019-01-09T10:23:42.826Z,98640.38
2019-01-09T10:26:09.977Z,98647.52
2019-01-09T10:28:36.856Z,98639.61
2019-01-09T10:31:03.820Z,98645.00
2019-01-09T10:33:31.028Z,98645.30
2019-01-09T10:35:57.904Z,98649.30
2019-01-09T10:38:24.845Z,98645.39
2019-01-09T10:40:51.781Z,98642.55
2019-01-09T10:43:18.678Z,98650.74
2019-01-09T10:45:45.615Z,98658.02
2019-01-09T10:48:12.550Z,98656.38
2019-01-09T10:50:39.746Z,98656.86
2019-01-09T10:53:06.630Z,98648.07
2019-01-09T10:55:33.498Z,98655.56
2019-01-09T10:58:00.397Z,98663.11
2019-01-09T11:00:27.652Z,98652.68
2019-01-09T11:02:54.538Z,98660.50
2019-01-09T11:05:21.419Z,98649.61
2019-01-09T11:07:49.905Z,98648.38
2019-01-09T11:10:16.815Z,98656.48
2019-01-09T11:12:43.923Z,98652.64
2019-01-09T11:15:10.974Z,98663.97
2019-01-09T11:17:39.320Z,98658.08
2019-01-09T11:20:06.266Z,98617.19
2019-01-09T11:22:33.450Z,98652.35
2019-01-09T11:25:03.481Z,98652.79
2019-01-09T11:27:30.364Z,98650.11
2019-01-09T11:32:29.536Z,98655.66
2019-01-09T11:34:56.457Z,98655.30
2019-01-09T11:37:23.396Z,98652.78
2019-01-09T11:39:50.409Z,98653.22
2019-01-09T11:42:17.345Z,98652.71
2019-01-09T11:44:44.288Z,98665.66
2019-01-09T11:47:11.590Z,98669.90
2019-01-09T11:49:38.542Z,98664.88
2019-01-09T11:52:05.420Z,98667.44
2019-01-09T11:54:32.760Z,98677.04
2019-01-09T11:57:00.352Z,98674.94
2019-01-09T11:59:27.646Z,98673.24
2019-01-09T12:01:54.527Z,98670.78
2019-01-09T12:04:21.410Z,98675.80
2019-01-09T12:06:48.281Z,98674.53
2019-01-09T12:09:15.287Z,98679.06
2019-01-09T12:11:42.234Z,98686.61
2019-01-09T12:14:09.643Z,98680.76
2019-01-09T12:16:36.980Z,98690.86
2019-01-09T12:19:04.311Z,98698.36
2019-01-09T12:21:31.230Z,98684.94
2019-01-09T12:23:58.133Z,98697.08
2019-01-09T12:26:25.101Z,98631.48
2019-01-09T12:28:53.754Z,98696.68
2019-01-09T12:31:22.035Z,98705.86
2019-01-09T12:33:48.922Z,98704.20
2019-01-09T12:36:15.834Z,98713.34
2019-01-09T12:38:42.744Z,98715.12
2019-01-09T12:41:10.168Z,98718.47
2019-01-09T12:43:37.477Z,98724.75
2019-01-09T12:46:07.379Z,98721.81
2019-01-09T12:48:38.849Z,98726.38
2019-01-09T12:51:06.634Z,98729.33
2019-01-09T12:53:34.321Z,98723.47
2019-01-09T12:56:01.737Z,98731.84
2019-01-09T12:58:28.601Z,98735.99
2019-01-09T13:00:55.748Z,98738.09
2019-01-09T13:03:22.981Z,98733.94
2019-01-09T13:05:49.881Z,98747.72
2019-01-09T13:08:16.829Z,98746.06
2019-01-09T13:10:43.734Z,98743.11
2019-01-09T13:13:10.666Z,98754.86
2019-01-09T13:15:38.084Z,98756.50
2019-01-09T13:18:05.430Z,98764.48
2019-01-09T13:20:32.403Z,98774.09
2019-01-09T13:22:59.349Z,98764.89
2019-01-09T13:25:26.709Z,98769.91
2019-01-09T13:27:53.619Z,98767.80
2019-01-09T13:30:20.585Z,98779.94
2019-01-09T13:32:47.547Z,98781.63
2019-01-09T13:35:14.517Z,98788.33
2019-01-09T13:37:41.507Z,98783.69
2019-01-09T13:40:08.423Z,98785.40
2019-01-09T13:42:35.742Z,98792.50
2019-01-09T13:45:06.850Z,98781.63
2019-01-09T13:47:33.873Z,98784.53
2019-01-09T13:50:03.585Z,98789.98
2019-01-09T13:52:30.561Z,98795.42
2019-01-09T13:54:57.844Z,98807.13
2019-01-09T13:57:24.759Z,98797.94
2019-01-09T13:59:51.798Z,98792.03
2019-01-09T14:02:19.123Z,98790.81
2019-01-09T14:04:46.240Z,98801.70
2019-01-09T14:07:13.698Z,98809.65
2019-01-09T14:09:40.977Z,98805.47
2019-01-09T14:12:09.631Z,98809.64
2019-01-09T14:14:36.893Z,98808.41
2019-01-09T14:17:06.475Z,98815.45
2019-01-09T14:19:33.741Z,98823.84
2019-01-09T14:22:00.717Z,98814.66
2019-01-09T14:24:27.669Z,98826.76
2019-01-09T14:26:54.624Z,98832.63
2019-01-09T14:29:21.971Z,98826.39
2019-01-09T14:31:51.012Z,98833.06
2019-01-09T14:34:20.856Z,98836.45
2019-01-09T14:36:48.921Z,98848.98
2019-01-09T14:39:16.216Z,98854.44
2019-01-09T14:41:44.089Z,98852.34
2019-01-09T14:44:11.442Z,98853.59
2019-01-09T14:46:41.069Z,98859.87
2019-01-09T14:49:08.003Z,98867.42
2019-01-09T14:51:42.892Z,98879.11
2019-01-09T14:54:03.688Z,98875.75
2019-01-09T14:56:30.610Z,98878.24
2019-01-09T14:58:57.645Z,98884.94
2019-01-09T15:01:24.893Z,98883.20
2019-01-09T15:03:52.170Z,98883.72
2019-01-09T15:06:19.807Z,98892.50
2019-01-09T15:08:47.171Z,98902.09
2019-01-09T15:11:14.212Z,98897.09
2019-01-09T15:13:41.153Z,98901.70
2019-01-09T15:16:08.495Z,98906.62
2019-01-09T15:18:35.459Z,98905.38
2019-01-09T15:21:04.089Z,98912.98
2019-01-09T15:23:31.046Z,98905.87
2019-01-09T15:25:58.318Z,98914.26
2019-01-09T15:28:25.265Z,98919.28
2019-01-09T15:30:52.398Z,98917.62
2019-01-09T15:33:19.463Z,98921.36
2019-01-09T15:35:46.570Z,98926.85
2019-01-09T15:38:13.467Z,98928.50
2019-01-09T15:40:40.435Z,98935.98
2019-01-09T15:43:07.397Z,98932.63
2019-01-09T15:45:34.279Z,98936.81
2019-01-09T15:48:01.515Z,98940.22
2019-01-09T15:50:28.551Z,98941.48
2019-01-09T15:52:55.564Z,98945.70
2019-01-09T15:55:22.916Z,98944.83
2019-01-09T15:57:49.926Z,98950.63
2019-01-09T16:00:16.810Z,98958.56
2019-01-09T16:02:43.981Z,98956.94
2019-01-09T16:05:12.276Z,98970.31
2019-01-09T16:07:39.221Z,98958.56
2019-01-09T16:10:14.193Z,98979.92
2019-01-09T16:12:34.853Z,98970.36
2019-01-09T16:15:01.914Z,98976.53
2019-01-09T16:17:29.111Z,98982.70
2019-01-09T16:19:56.048Z,98981.95
2019-01-09T16:22:28.310Z,98977.02
2019-01-09T16:24:55.479Z,98981.61
2019-01-09T16:27:22.565Z,98995.43
2019-01-09T16:29:49.849Z,98990.02
2019-01-09T16:32:17.190Z,98992.86
2019-01-09T16:34:44.142Z,98989.56
2019-01-09T16:37:11.433Z,99006.30
2019-01-09T16:39:38.397Z,99005.47
2019-01-09T16:42:05.603Z,98997.39
2019-01-09T16:44:33.213Z,98996.13
2019-01-09T16:47:00.182Z,99005.41
2019-01-09T16:49:28.073Z,99015.88
2019-01-09T16:51:56.137Z,99012.06
2019-01-09T16:54:24.985Z,99018.30
2019-01-09T16:56:52.040Z,99015.84
2019-01-09T16:59:19.497Z,99011.29
2019-01-09T17:01:50.965Z,99021.27
2019-01-09T17:04:18.453Z,99021.30
2019-01-09T17:06:46.316Z,99028.06
2019-01-09T17:09:14.477Z,99025.08
2019-01-09T17:11:41.433Z,99027.47
2019-01-09T17:14:08.744Z,99039.75
2019-01-09T17:16:36.376Z,99042.64
2019-01-09T17:19:03.853Z,99047.25
2019-01-09T17:21:30.946Z,99049.31
2019-01-09T17:23:58.109Z,99048.45
2019-01-09T17:26:25.068Z,99059.27
2019-01-09T17:28:52.443Z,99061.11
2019-01-09T17:31:19.371Z,99070.23
2019-01-09T17:33:46.648Z,99070.59
2019-01-09T17:36:13.661Z,99074.77
2019-01-09T17:38:42.147Z,99077.19
2019-01-09T17:41:09.163Z,99085.47
2019-01-09T17:43:36.138Z,99086.42
2019-01-09T17:46:03.378Z,99088.17
2019-01-09T17:48:31.416Z,99087.34
2019-01-09T17:51:00.152Z,99094.36
2019-01-09T17:53:27.108Z,99093.98
2019-01-09T17:55:54.056Z,99097.21
2019-01-09T17:58:26.192Z,99099.78
2019-01-09T18:00:53.447Z,99101.48
2019-01-09T18:03:20.757Z,99110.60
2019-01-09T18:05:48.972Z,99106.47
2019-01-09T18:08:15.898Z,99115.58
2019-01-09T18:10:50.036Z,99121.17
2019-01-09T18:13:12.348Z,99121.48
2019-01-09T18:15:39.659Z,99119.86
2019-01-09T18:18:08.621Z,99128.23
2019-01-09T18:20:37.822Z,99134.08
2019-01-09T18:23:04.833Z,99136.23
2019-01-09T18:25:34.150Z,99134.13
2019-01-09T18:28:01.482Z,99146.82
2019-01-09T18:30:28.472Z,99148.48
2019-01-09T18:32:55.446Z,99147.33
2019-01-09T18:35:23.867Z,99151.88
2019-01-09T18:37:52.841Z,99159.12
2019-01-09T18:40:20.061Z,99168.81
2019-01-09T18:42:47.389Z,99161.73
2019-01-09T18:45:14.404Z,99179.38
2019-01-09T18:47:56.401Z,99175.88
2019-01-09T18:53:04.807Z,99193.94
2019-01-09T18:58:05.374Z,99199.25
2019-01-09T19:00:33.555Z,99196.44
2019-01-09T19:03:00.599Z,99198.89
2019-01-09T19:05:27.592Z,99201.63
2019-01-09T19:07:54.558Z,99207.36
2019-01-09T19:10:31.083Z,99214.27
2019-01-09T19:21:17.902Z,99229.09
2019-01-09T19:23:47.706Z,99237.11
2019-01-09T19:26:19.902Z,99243.28
2019-01-09T19:28:44.140Z,99244.69
2019-01-09T19:31:16.332Z,99242.00
2019-01-09T19:33:45.565Z,99247.36
2019-01-09T19:36:24.351Z,99255.45
2019-01-09T19:38:53.914Z,99257.05
2019-01-09T19:41:21.019Z,99081.77
2019-01-09T19:43:48.020Z,99267.25
2019-01-09T19:46:17.539Z,99268.34
2019-01-09T19:48:45.175Z,99274.75
2019-01-09T19:51:17.351Z,99278.61
2019-01-09T19:53:41.280Z,99283.09
2019-01-09T19:56:11.564Z,99290.25
2019-01-09T19:58:42.011Z,99286.77
2019-01-09T20:01:09.482Z,99288.38
2019-01-09T20:03:36.835Z,99299.75
2019-01-09T20:06:04.183Z,99299.56
2019-01-09T20:08:41.481Z,99303.14
2019-01-09T20:11:11.237Z,99310.84
2019-01-09T20:13:38.258Z,99315.16
2019-01-09T20:16:20.074Z,99317.77
2019-01-09T20:18:49.994Z,99318.93
2019-01-09T20:21:17.699Z,99320.84
2019-01-09T20:23:47.909Z,99324.42
2019-01-09T20:26:15.197Z,99331.73
2019-01-09T20:28:42.969Z,99329.34
2019-01-09T20:31:09.976Z,99338.48
2019-01-09T20:33:39.420Z,99343.23
2019-01-09T20:36:06.698Z,99347.82
2019-01-09T20:38:34.149Z,99347.41
2019-01-09T20:41:01.627Z,99353.23
2019-01-09T20:43:29.401Z,99358.09
2019-01-09T20:45:56.593Z,99362.09
2019-01-09T20:48:23.585Z,99358.97
2019-01-09T20:50:50.590Z,99365.92
2019-01-09T20:53:28.719Z,99369.73
2019-01-09T20:55:58.045Z,99377.44
2019-01-09T20:58:25.053Z,99380.25
2019-01-09T21:00:51.939Z,99390.70
2019-01-09T21:03:19.268Z,99387.19
2019-01-09T21:08:15.298Z,99402.97
2019-01-09T21:10:42.229Z,99405.59
2019-01-09T21:13:09.411Z,99404.81
2019-01-09T21:15:36.715Z,99399.80
2019-01-09T21:18:04.076Z,99409.05
2019-01-09T21:20:31.537Z,99414.91
2019-01-09T21:22:58.488Z,99410.19
2019-01-09T21:25:25.461Z,99413.83
2019-01-09T21:27:52.450Z,99416.94
2019-01-09T21:30:19.586Z,99423.57
2019-01-09T21:32:46.624Z,99429.92
2019-01-09T21:35:14.030Z,99429.20
2019-01-09T21:37:40.907Z,99437.95
2019-01-09T21:40:08.427Z,99444.66
2019-01-09T21:42:35.781Z,99443.03
2019-01-09T21:45:02.766Z,99442.40
2019-01-09T21:47:31.890Z,99455.28
2019-01-09T21:50:08.721Z,99452.72
2019-01-09T21:52:35.804Z,99461.58
2019-01-09T21:55:03.042Z,99462.44
2019-01-09T21:57:30.459Z,99456.90
2019-01-09T21:59:57.755Z,99463.12
2019-01-09T22:02:24.863Z,99466.52
2019-01-09T22:04:54.750Z,99478.17
2019-01-09T22:07:22.039Z,99483.52
2019-01-09T22:09:49.384Z,99483.94
2019-01-09T22:12:16.503Z,99484.77
2019-01-09T22:14:43.788Z,99495.01
2019-01-09T22:17:11.044Z,99495.81
2019-01-09T22:19:38.373Z,99505.23
2019-01-09T22:22:05.540Z,99503.17
2019-01-09T22:24:32.803Z,99504.18
2019-01-09T22:26:59.802Z,99497.41
2019-01-09T22:29:26.698Z,99511.61
2019-01-09T22:31:53.585Z,99507.48
2019-01-09T22:34:20.902Z,99511.81
2019-01-09T22:36:47.914Z,99516.83
2019-01-09T22:39:15.293Z,99517.67
2019-01-09T22:41:42.238Z,99512.80
2019-01-09T22:44:09.522Z,99527.74
2019-01-09T22:46:36.446Z,99530.95
2019-01-09T22:49:03.428Z,99528.03
2019-01-09T22:51:30.374Z,99525.23
2019-01-09T22:53:57.685Z,99535.21
2019-01-09T22:56:24.833Z,99535.16
2019-01-09T22:58:52.248Z,99533.07
2019-01-09T23:01:19.543Z,99540.62
2019-01-09T23:03:46.979Z,99542.67
2019-01-09T23:06:13.954Z,99544.34
2019-01-09T23:08:41.209Z,99550.30
2019-01-09T23:11:08.321Z,99552.18
2019-01-09T23:13:35.631Z,99549.80
2019-01-09T23:16:02.577Z,99555.05
2019-01-09T23:18:29.802Z,99562.27
2019-01-09T23:20:56.827Z,99566.25
2019-01-09T23:23:23.750Z,99565.69
2019-01-09T23:25:50.694Z,99576.16
2019-01-09T23:28:17.885Z,99576.19
2019-01-09T23:30:46.005Z,99576.20
2019-01-09T23:33:12.894Z,99577.50
2019-01-09T23:35:39.891Z,99581.17
2019-01-09T23:38:07.225Z,99580.81
2019-01-09T23:40:34.441Z,99588.63
2019-01-09T23:43:01.659Z,99589.92
2019-01-09T23:45:28.969Z,99593.58
2019-01-09T23:47:55.921Z,99598.92
2019-01-09T23:50:23.261Z,99601.16
2019-01-09T23:52:50.546Z,99606.39
2019-01-09T23:55:17.761Z,99606.22
2019-01-09T23:57:45.020Z,99606.52
